createdAt,value
2019-01-18T00:00:09.626Z,0.00
2019-01-18T00:01:09.611Z,0.00
2019-01-18T00:02:09.592Z,0.00
2019-01-18T00:03:09.583Z,0.00
2019-01-18T00:04:09.565Z,0.00
2019-01-18T00:05:09.548Z,0.00
2019-01-18T00:06:09.532Z,0.00
2019-01-18T00:07:09.517Z,0.00
2019-01-18T00:08:09.503Z,0.00
2019-01-18T00:09:09.487Z,0.00
2019-01-18T00:10:09.471Z,0.00
2019-01-18T00:11:09.452Z,0.00
2019-01-18T00:12:09.440Z,0.00
2019-01-18T00:13:09.462Z,0.00
2019-01-18T00:14:09.408Z,0.00
2019-01-18T00:15:09.391Z,0.00
2019-01-18T00:16:09.378Z,0.00
2019-01-18T00:17:09.361Z,0.00
2019-01-18T00:18:09.346Z,0.00
2019-01-18T00:19:09.330Z,0.00
2019-01-18T00:20:09.316Z,0.00
2019-01-18T00:21:09.302Z,0.00
2019-01-18T00:22:09.287Z,0.00
2019-01-18T00:23:09.269Z,0.00
2019-01-18T00:24:09.253Z,0.00
2019-01-18T00:25:09.236Z,0.00
2019-01-18T00:26:09.223Z,0.00
2019-01-18T00:27:09.206Z,0.00
2019-01-18T00:28:09.191Z,0.00
2019-01-18T00:29:09.173Z,0.00
2019-01-18T00:30:09.158Z,0.00
2019-01-18T00:31:09.141Z,0.00
2019-01-18T00:32:09.128Z,0.00
2019-01-18T00:33:09.110Z,0.00
2019-01-18T00:34:09.096Z,0.00
2019-01-18T00:35:09.083Z,0.00
2019-01-18T00:36:09.065Z,0.00
2019-01-18T00:37:09.047Z,0.00
2019-01-18T00:38:09.035Z,0.00
2019-01-18T00:39:09.016Z,0.00
2019-01-18T00:40:09.003Z,0.00
2019-01-18T00:41:08.986Z,0.00
2019-01-18T00:42:08.971Z,0.00
2019-01-18T00:43:08.953Z,0.00
2019-01-18T00:44:08.937Z,0.00
2019-01-18T00:45:08.923Z,0.00
2019-01-18T00:46:08.906Z,0.00
2019-01-18T00:47:08.890Z,0.00
2019-01-18T00:48:08.873Z,0.00
2019-01-18T00:49:08.861Z,0.00
2019-01-18T00:50:08.843Z,0.00
2019-01-18T00:51:08.827Z,0.00
2019-01-18T00:52:08.810Z,0.00
2019-01-18T00:53:08.794Z,0.00
2019-01-18T00:54:08.778Z,0.00
2019-01-18T00:55:08.762Z,0.00
2019-01-18T00:56:08.747Z,0.00
2019-01-18T00:57:08.739Z,0.00
2019-01-18T00:58:08.714Z,0.00
2019-01-18T00:59:08.699Z,0.00
2019-01-18T01:00:08.682Z,0.00
2019-01-18T01:01:08.667Z,0.00
2019-01-18T01:02:08.651Z,0.00
2019-01-18T01:03:08.634Z,0.00
2019-01-18T01:04:08.617Z,0.00
2019-01-18T01:05:08.603Z,0.00
2019-01-18T01:06:08.587Z,0.00
2019-01-18T01:07:08.571Z,0.00
2019-01-18T01:08:08.555Z,0.00
2019-01-18T01:09:08.539Z,0.00
2019-01-18T01:10:08.521Z,0.00
2019-01-18T01:11:08.509Z,0.00
2019-01-18T01:12:08.495Z,0.00
2019-01-18T01:13:08.475Z,0.00
2019-01-18T01:14:08.458Z,0.00
2019-01-18T01:15:08.443Z,0.00
2019-01-18T01:16:08.429Z,0.00
2019-01-18T01:17:08.415Z,0.00
2019-01-18T01:18:08.395Z,0.00
2019-01-18T01:19:08.381Z,0.00
2019-01-18T01:20:08.364Z,0.00
2019-01-18T01:21:08.348Z,0.00
2019-01-18T01:22:08.333Z,0.00
2019-01-18T01:23:08.318Z,0.00
2019-01-18T01:24:08.301Z,0.00
2019-01-18T01:25:08.285Z,0.00
2019-01-18T01:26:08.269Z,0.00
2019-01-18T01:27:08.253Z,0.00
2019-01-18T01:28:08.236Z,0.00
2019-01-18T01:29:08.221Z,0.00
2019-01-18T01:30:08.204Z,0.00
2019-01-18T01:31:08.189Z,0.00
2019-01-18T01:32:08.174Z,0.00
2019-01-18T01:33:08.159Z,0.00
2019-01-18T01:34:08.141Z,0.00
2019-01-18T01:35:08.126Z,0.00
2019-01-18T01:36:08.111Z,0.00
2019-01-18T01:37:08.093Z,0.00
2019-01-18T01:38:08.075Z,0.00
2019-01-18T01:39:08.060Z,0.00
2019-01-18T01:40:08.047Z,0.00
2019-01-18T01:41:08.031Z,0.00
2019-01-18T01:42:08.013Z,0.00
2019-01-18T01:43:08.004Z,0.00
2019-01-18T01:44:07.983Z,0.00
2019-01-18T01:45:07.969Z,0.00
2019-01-18T01:46:07.949Z,0.00
2019-01-18T01:47:07.934Z,0.00
2019-01-18T01:48:07.919Z,0.00
2019-01-18T01:49:07.903Z,0.00
2019-01-18T01:50:07.888Z,0.00
2019-01-18T01:51:07.873Z,0.00
2019-01-18T01:52:07.854Z,0.00
2019-01-18T01:53:07.838Z,0.00
2019-01-18T01:54:07.820Z,0.00
2019-01-18T01:55:07.807Z,0.00
2019-01-18T01:56:07.790Z,0.00
2019-01-18T01:57:07.776Z,0.00
2019-01-18T01:58:07.758Z,0.00
2019-01-18T01:59:07.743Z,0.00
2019-01-18T02:00:07.726Z,0.00
2019-01-18T02:01:07.710Z,0.00
2019-01-18T02:02:07.694Z,0.00
2019-01-18T02:03:07.679Z,0.00
2019-01-18T02:04:07.664Z,0.00
2019-01-18T02:05:07.648Z,0.00
2019-01-18T02:06:07.632Z,0.00
2019-01-18T02:07:07.613Z,0.00
2019-01-18T02:08:07.598Z,0.00
2019-01-18T02:09:07.583Z,0.00
2019-01-18T02:10:07.565Z,0.00
2019-01-18T02:11:07.549Z,0.00
2019-01-18T02:12:07.533Z,0.00
2019-01-18T02:13:07.520Z,0.00
2019-01-18T02:14:07.504Z,0.00
2019-01-18T02:15:07.485Z,0.00
2019-01-18T02:16:07.471Z,0.00
2019-01-18T02:17:07.453Z,0.00
2019-01-18T02:18:07.435Z,0.00
2019-01-18T02:19:07.421Z,0.00
2019-01-18T02:20:07.404Z,0.00
2019-01-18T02:21:07.390Z,0.00
2019-01-18T02:22:07.371Z,0.00
2019-01-18T02:23:07.355Z,0.00
2019-01-18T02:24:07.340Z,0.00
2019-01-18T02:25:07.325Z,0.00
2019-01-18T02:26:07.306Z,0.00
2019-01-18T02:27:07.291Z,0.00
2019-01-18T02:28:07.276Z,0.00
2019-01-18T02:29:07.259Z,0.00
2019-01-18T02:30:07.243Z,0.00
2019-01-18T02:31:07.225Z,0.00
2019-01-18T02:32:07.208Z,0.00
2019-01-18T02:33:07.196Z,0.00
2019-01-18T02:34:07.180Z,0.00
2019-01-18T02:35:07.161Z,0.00
2019-01-18T02:36:07.149Z,0.00
2019-01-18T02:37:07.131Z,0.00
2019-01-18T02:38:07.112Z,0.00
2019-01-18T02:39:07.094Z,0.00
2019-01-18T02:40:07.078Z,0.00
2019-01-18T02:41:07.063Z,0.00
2019-01-18T02:42:07.047Z,0.00
2019-01-18T02:43:07.031Z,0.00
2019-01-18T02:44:07.015Z,0.00
2019-01-18T02:45:07.000Z,0.00
2019-01-18T02:46:06.980Z,0.00
2019-01-18T02:47:06.968Z,0.00
2019-01-18T02:48:06.948Z,0.00
2019-01-18T02:49:06.933Z,0.00
2019-01-18T02:50:06.914Z,0.00
2019-01-18T02:51:06.899Z,0.00
2019-01-18T02:52:06.882Z,0.00
2019-01-18T02:53:06.903Z,0.00
2019-01-18T02:54:06.850Z,0.00
2019-01-18T02:55:06.834Z,0.00
2019-01-18T02:56:06.815Z,0.00
2019-01-18T02:57:06.798Z,0.00
2019-01-18T02:58:06.781Z,0.00
2019-01-18T02:59:06.768Z,0.00
2019-01-18T03:00:06.752Z,0.00
2019-01-18T03:01:06.734Z,0.00
2019-01-18T03:02:06.716Z,0.00
2019-01-18T03:03:06.699Z,0.00
2019-01-18T03:04:06.685Z,0.00
2019-01-18T03:05:06.667Z,0.00
2019-01-18T03:06:06.650Z,0.00
2019-01-18T03:07:06.631Z,0.00
2019-01-18T03:08:06.617Z,0.00
2019-01-18T03:09:06.599Z,0.00
2019-01-18T03:10:06.583Z,0.00
2019-01-18T03:11:06.566Z,0.00
2019-01-18T03:12:06.548Z,0.00
2019-01-18T03:13:06.538Z,0.00
2019-01-18T03:14:06.521Z,0.00
2019-01-18T03:15:06.498Z,0.00
2019-01-18T03:16:06.483Z,0.00
2019-01-18T03:17:06.471Z,0.00
2019-01-18T03:18:06.448Z,0.00
2019-01-18T03:19:06.431Z,0.00
2019-01-18T03:20:06.415Z,0.00
2019-01-18T03:21:06.397Z,0.00
2019-01-18T03:22:06.380Z,0.00
2019-01-18T03:23:06.363Z,0.00
2019-01-18T03:24:06.347Z,0.00
2019-01-18T03:25:06.332Z,0.00
2019-01-18T03:26:06.312Z,0.00
2019-01-18T03:27:06.298Z,0.00
2019-01-18T03:28:06.282Z,0.00
2019-01-18T03:29:06.265Z,0.00
2019-01-18T03:30:18.233Z,0.00
2019-01-18T03:31:06.233Z,0.00
2019-01-18T03:32:06.216Z,0.00
2019-01-18T03:33:06.198Z,0.00
2019-01-18T03:34:06.178Z,0.00
2019-01-18T03:35:06.165Z,0.00
2019-01-18T03:36:06.145Z,0.00
2019-01-18T03:37:06.131Z,0.00
2019-01-18T03:38:06.110Z,0.00
2019-01-18T03:39:06.094Z,0.00
2019-01-18T03:40:06.078Z,0.00
2019-01-18T03:41:06.063Z,0.00
2019-01-18T03:42:06.046Z,0.00
2019-01-18T03:43:06.028Z,0.00
2019-01-18T03:44:06.010Z,0.00
2019-01-18T03:45:05.996Z,0.00
2019-01-18T03:46:05.980Z,0.00
2019-01-18T03:47:05.959Z,0.00
2019-01-18T03:48:05.946Z,0.00
2019-01-18T03:49:05.927Z,0.00
2019-01-18T03:50:05.910Z,0.00
2019-01-18T03:51:05.891Z,0.00
2019-01-18T03:52:05.876Z,0.00
2019-01-18T03:53:05.861Z,0.00
2019-01-18T03:54:05.841Z,0.00
2019-01-18T03:55:05.827Z,0.00
2019-01-18T03:56:05.809Z,0.00
2019-01-18T03:57:05.791Z,0.00
2019-01-18T03:58:05.778Z,0.00
2019-01-18T03:59:05.760Z,0.00
2019-01-18T04:00:05.743Z,0.00
2019-01-18T04:01:05.726Z,0.00
2019-01-18T04:02:05.710Z,0.00
2019-01-18T04:03:05.699Z,0.00
2019-01-18T04:04:05.674Z,0.00
2019-01-18T04:05:05.658Z,0.00
2019-01-18T04:06:05.641Z,0.00
2019-01-18T04:07:05.625Z,0.00
2019-01-18T04:08:05.610Z,0.00
2019-01-18T04:09:05.591Z,0.00
2019-01-18T04:10:05.575Z,0.00
2019-01-18T04:11:05.558Z,0.00
2019-01-18T04:12:05.540Z,0.00
2019-01-18T04:13:05.524Z,0.00
2019-01-18T04:14:05.509Z,0.00
2019-01-18T04:15:05.492Z,0.00
2019-01-18T04:16:05.473Z,0.00
2019-01-18T04:17:05.458Z,0.00
2019-01-18T04:18:05.441Z,0.00
2019-01-18T04:19:05.424Z,0.00
2019-01-18T04:20:05.407Z,0.00
2019-01-18T04:21:05.396Z,0.00
2019-01-18T04:22:05.372Z,0.00
2019-01-18T04:23:05.357Z,0.00
2019-01-18T04:24:05.342Z,0.00
2019-01-18T04:25:05.325Z,0.00
2019-01-18T04:26:05.309Z,0.00
2019-01-18T04:27:05.292Z,0.00
2019-01-18T04:28:05.273Z,0.00
2019-01-18T04:29:05.257Z,0.00
2019-01-18T04:30:05.239Z,0.00
2019-01-18T04:31:05.224Z,0.00
2019-01-18T04:32:05.206Z,0.00
2019-01-18T04:33:05.190Z,0.00
2019-01-18T04:34:05.175Z,0.00
2019-01-18T04:35:05.155Z,0.00
2019-01-18T04:36:05.138Z,0.00
2019-01-18T04:37:05.124Z,0.00
2019-01-18T04:38:05.107Z,0.00
2019-01-18T04:39:05.091Z,0.00
2019-01-18T04:40:05.071Z,0.00
2019-01-18T04:41:05.056Z,0.00
2019-01-18T04:42:05.041Z,0.00
2019-01-18T04:43:05.021Z,0.00
2019-01-18T04:44:05.014Z,0.00
2019-01-18T04:45:04.988Z,0.00
2019-01-18T04:46:04.972Z,0.00
2019-01-18T04:47:04.954Z,0.00
2019-01-18T04:48:04.939Z,0.00
2019-01-18T04:49:04.921Z,0.00
2019-01-18T04:50:04.904Z,0.00
2019-01-18T04:51:04.885Z,0.00
2019-01-18T04:52:04.869Z,0.00
2019-01-18T04:53:04.851Z,0.00
2019-01-18T04:54:04.834Z,0.00
2019-01-18T04:55:04.818Z,0.00
2019-01-18T04:56:04.811Z,0.00
2019-01-18T04:57:04.800Z,0.00
2019-01-18T04:58:04.767Z,0.00
2019-01-18T04:59:04.752Z,0.00
2019-01-18T05:00:04.735Z,0.00
2019-01-18T05:01:04.716Z,0.00
2019-01-18T05:02:04.700Z,0.00
2019-01-18T05:03:04.680Z,0.00
2019-01-18T05:04:04.665Z,0.00
2019-01-18T05:05:04.649Z,0.00
2019-01-18T05:06:04.629Z,0.00
2019-01-18T05:07:04.624Z,0.00
2019-01-18T05:08:04.595Z,0.00
2019-01-18T05:09:04.583Z,0.00
2019-01-18T05:10:04.568Z,0.00
2019-01-18T05:11:04.546Z,0.00
2019-01-18T05:12:04.527Z,0.00
2019-01-18T05:13:04.517Z,0.00
2019-01-18T05:14:04.497Z,0.00
2019-01-18T05:15:04.480Z,0.00
2019-01-18T05:16:04.461Z,0.00
2019-01-18T05:17:04.451Z,0.00
2019-01-18T05:18:04.427Z,0.00
2019-01-18T05:19:04.409Z,0.00
2019-01-18T05:20:04.400Z,0.00
2019-01-18T05:21:04.377Z,0.00
2019-01-18T05:22:04.359Z,0.00
2019-01-18T05:23:04.341Z,0.00
2019-01-18T05:24:04.332Z,0.00
2019-01-18T05:25:04.310Z,0.00
2019-01-18T05:26:04.290Z,0.00
2019-01-18T05:27:04.274Z,0.00
2019-01-18T05:28:04.261Z,0.00
2019-01-18T05:29:04.242Z,0.00
2019-01-18T05:30:04.224Z,0.00
2019-01-18T05:31:04.308Z,0.00
2019-01-18T05:32:04.189Z,0.00
2019-01-18T05:33:04.178Z,0.00
2019-01-18T05:34:04.158Z,0.00
2019-01-18T05:35:04.140Z,0.00
2019-01-18T05:36:04.124Z,0.00
2019-01-18T05:37:04.105Z,0.00
2019-01-18T05:38:04.086Z,0.00
2019-01-18T05:39:04.074Z,0.00
2019-01-18T05:40:04.054Z,0.00
2019-01-18T05:41:04.036Z,0.00
2019-01-18T05:42:04.020Z,0.00
2019-01-18T05:43:04.003Z,0.00
2019-01-18T05:44:03.984Z,0.00
2019-01-18T05:45:03.969Z,0.00
2019-01-18T05:46:03.952Z,0.00
2019-01-18T05:47:03.933Z,0.00
2019-01-18T05:48:03.919Z,0.00
2019-01-18T05:49:03.899Z,0.00
2019-01-18T05:50:03.882Z,0.00
2019-01-18T05:51:03.865Z,0.00
2019-01-18T05:52:03.857Z,0.00
2019-01-18T05:53:03.835Z,0.00
2019-01-18T05:54:03.812Z,0.00
2019-01-18T05:55:03.796Z,0.00
2019-01-18T05:56:03.779Z,0.00
2019-01-18T05:57:03.762Z,0.00
2019-01-18T05:58:03.743Z,0.00
2019-01-18T05:59:03.729Z,0.00
2019-01-18T06:00:03.711Z,0.00
2019-01-18T06:01:03.695Z,0.00
2019-01-18T06:02:03.674Z,0.00
2019-01-18T06:03:03.656Z,0.00
2019-01-18T06:04:03.643Z,0.00
2019-01-18T06:05:03.628Z,0.00
2019-01-18T06:06:03.607Z,0.00
2019-01-18T06:07:03.592Z,0.00
2019-01-18T06:08:03.576Z,0.00
2019-01-18T06:09:03.558Z,0.00
2019-01-18T06:10:03.541Z,0.00
2019-01-18T06:11:03.522Z,0.00
2019-01-18T06:12:03.509Z,0.00
2019-01-18T06:13:03.487Z,0.00
2019-01-18T06:14:03.470Z,0.00
2019-01-18T06:15:03.455Z,0.00
2019-01-18T06:16:03.438Z,0.00
2019-01-18T06:17:03.419Z,0.00
2019-01-18T06:18:03.404Z,0.00
2019-01-18T06:19:03.384Z,0.00
2019-01-18T06:20:03.369Z,0.00
2019-01-18T06:21:03.350Z,0.00
2019-01-18T06:22:03.330Z,0.00
2019-01-18T06:23:03.318Z,0.00
2019-01-18T06:24:03.299Z,0.00
2019-01-18T06:25:03.284Z,0.00
2019-01-18T06:26:03.266Z,0.00
2019-01-18T06:27:03.245Z,0.00
2019-01-18T06:28:03.229Z,0.00
2019-01-18T06:29:03.216Z,0.00
2019-01-18T06:30:03.200Z,0.00
2019-01-18T06:31:03.175Z,0.00
2019-01-18T06:32:03.159Z,0.00
2019-01-18T06:33:03.143Z,0.00
2019-01-18T06:34:03.123Z,0.00
2019-01-18T06:35:03.108Z,0.00
2019-01-18T06:36:03.089Z,0.00
2019-01-18T06:37:03.079Z,0.00
2019-01-18T06:38:03.058Z,0.00
2019-01-18T06:39:03.040Z,0.00
2019-01-18T06:40:03.026Z,0.00
2019-01-18T06:41:03.006Z,0.00
2019-01-18T06:42:02.988Z,4.00
2019-01-18T06:43:02.970Z,4.00
2019-01-18T06:44:02.949Z,0.00
2019-01-18T06:45:02.941Z,4.00
2019-01-18T06:46:02.917Z,4.00
2019-01-18T06:47:02.902Z,4.00
2019-01-18T06:48:02.883Z,4.00
2019-01-18T06:49:02.864Z,4.00
2019-01-18T06:50:02.845Z,4.00
2019-01-18T06:51:02.829Z,8.00
2019-01-18T06:52:02.813Z,8.00
2019-01-18T06:53:02.798Z,8.00
2019-01-18T06:54:02.780Z,12.00
2019-01-18T06:55:02.759Z,12.00
2019-01-18T06:56:02.743Z,16.00
2019-01-18T06:57:02.726Z,20.00
2019-01-18T06:58:02.708Z,20.00
2019-01-18T06:59:02.690Z,24.00
2019-01-18T07:00:02.674Z,28.00
2019-01-18T07:01:08.353Z,32.00
2019-01-18T07:02:02.638Z,40.00
2019-01-18T07:03:02.620Z,40.00
2019-01-18T07:04:02.602Z,48.00
2019-01-18T07:05:02.584Z,52.00
2019-01-18T07:06:02.567Z,60.00
2019-01-18T07:07:02.568Z,64.00
2019-01-18T07:08:02.535Z,72.00
2019-01-18T07:09:02.514Z,80.00
2019-01-18T07:10:02.498Z,88.00
2019-01-18T07:11:02.480Z,92.00
2019-01-18T07:12:02.464Z,104.00
2019-01-18T07:13:02.447Z,112.00
2019-01-18T07:14:02.428Z,120.00
2019-01-18T07:15:02.412Z,128.00
2019-01-18T07:16:02.393Z,136.00
2019-01-18T07:17:02.378Z,144.00
2019-01-18T07:18:02.358Z,148.00
2019-01-18T07:19:02.349Z,156.00
2019-01-18T07:20:02.320Z,164.00
2019-01-18T07:21:02.306Z,168.00
2019-01-18T07:22:02.290Z,176.00
2019-01-18T07:23:02.268Z,184.00
2019-01-18T07:24:02.252Z,192.00
2019-01-18T07:25:02.238Z,200.00
2019-01-18T07:26:02.216Z,208.00
2019-01-18T07:27:02.200Z,220.00
2019-01-18T07:28:02.184Z,228.00
2019-01-18T07:29:02.165Z,240.00
2019-01-18T07:30:02.148Z,248.00
2019-01-18T07:31:02.131Z,256.00
2019-01-18T07:32:02.113Z,268.00
2019-01-18T07:33:02.095Z,280.00
2019-01-18T07:34:02.077Z,296.00
2019-01-18T07:35:02.058Z,304.00
2019-01-18T07:36:02.044Z,316.00
2019-01-18T07:37:02.022Z,320.00
2019-01-18T07:38:02.008Z,328.00
2019-01-18T07:39:02.037Z,336.00
2019-01-18T07:40:01.976Z,340.00
2019-01-18T07:41:01.954Z,344.00
2019-01-18T07:42:01.937Z,344.00
2019-01-18T07:43:01.920Z,352.00
2019-01-18T07:44:01.901Z,352.00
2019-01-18T07:45:01.886Z,352.00
2019-01-18T07:46:01.869Z,348.00
2019-01-18T07:47:01.849Z,344.00
2019-01-18T07:48:01.833Z,344.00
2019-01-18T07:49:01.817Z,344.00
2019-01-18T07:50:01.796Z,344.00
2019-01-18T07:51:01.782Z,344.00
2019-01-18T07:52:01.764Z,356.00
2019-01-18T07:53:01.745Z,364.00
2019-01-18T07:54:01.727Z,380.00
2019-01-18T07:55:01.714Z,396.00
2019-01-18T07:56:01.693Z,408.00
2019-01-18T07:57:01.676Z,420.00
2019-01-18T07:58:01.661Z,420.00
2019-01-18T07:59:01.643Z,424.00
2019-01-18T08:00:01.624Z,428.00
2019-01-18T08:01:01.607Z,436.00
2019-01-18T08:02:01.590Z,444.00
2019-01-18T08:03:01.583Z,464.00
2019-01-18T08:04:01.554Z,480.00
2019-01-18T08:05:01.541Z,496.00
2019-01-18T08:06:01.521Z,516.00
2019-01-18T08:07:01.503Z,548.00
2019-01-18T08:08:03.029Z,584.00
2019-01-18T08:09:01.469Z,628.00
2019-01-18T08:10:01.456Z,668.00
2019-01-18T08:11:01.435Z,700.00
2019-01-18T08:12:01.416Z,732.00
2019-01-18T08:13:01.404Z,776.00
2019-01-18T08:14:01.382Z,804.00
2019-01-18T08:15:01.366Z,816.00
2019-01-18T08:16:01.349Z,812.00
2019-01-18T08:17:01.332Z,772.00
2019-01-18T08:18:01.315Z,724.00
2019-01-18T08:19:01.296Z,696.00
2019-01-18T08:20:01.281Z,692.00
2019-01-18T08:21:01.265Z,696.00
2019-01-18T08:22:01.248Z,700.00
2019-01-18T08:23:01.232Z,704.00
2019-01-18T08:24:01.214Z,712.00
2019-01-18T08:25:01.196Z,716.00
2019-01-18T08:26:01.179Z,724.00
2019-01-18T08:27:01.163Z,728.00
2019-01-18T08:28:01.143Z,732.00
2019-01-18T08:29:01.128Z,740.00
2019-01-18T08:30:01.110Z,748.00
2019-01-18T08:31:01.098Z,752.00
2019-01-18T08:32:01.078Z,756.00
2019-01-18T08:33:01.064Z,760.00
2019-01-18T08:34:01.042Z,768.00
2019-01-18T08:35:01.024Z,772.00
2019-01-18T08:36:01.008Z,780.00
2019-01-18T08:37:00.989Z,788.00
2019-01-18T08:38:00.970Z,800.00
2019-01-18T08:39:00.957Z,808.00
2019-01-18T08:40:00.939Z,820.00
2019-01-18T08:41:00.930Z,844.00
2019-01-18T08:42:00.904Z,860.00
2019-01-18T08:43:00.888Z,876.00
2019-01-18T08:44:00.870Z,892.00
2019-01-18T08:45:00.853Z,908.00
2019-01-18T08:46:00.835Z,920.00
2019-01-18T08:47:00.819Z,936.00
2019-01-18T08:48:00.803Z,952.00
2019-01-18T08:49:01.265Z,968.00
2019-01-18T08:50:00.766Z,988.00
2019-01-18T08:51:00.754Z,1008.00
2019-01-18T08:52:00.735Z,1028.00
2019-01-18T08:53:00.718Z,1048.00
2019-01-18T08:54:00.700Z,1060.00
2019-01-18T08:55:00.689Z,1080.00
2019-01-18T08:56:00.666Z,1092.00
2019-01-18T08:57:00.650Z,1104.00
2019-01-18T08:58:00.630Z,1112.00
2019-01-18T08:59:00.615Z,1124.00
2019-01-18T09:00:00.601Z,1140.00
2019-01-18T09:01:00.579Z,1144.00
2019-01-18T09:02:00.561Z,1160.00
2019-01-18T09:03:00.546Z,1172.00
2019-01-18T09:04:00.527Z,1184.00
2019-01-18T09:05:00.512Z,1196.00
2019-01-18T09:06:00.495Z,1200.00
2019-01-18T09:07:00.477Z,1212.00
2019-01-18T09:08:00.463Z,1224.00
2019-01-18T09:09:00.447Z,1232.00
2019-01-18T09:10:00.427Z,1240.00
2019-01-18T09:11:00.411Z,1248.00
2019-01-18T09:12:00.395Z,1260.00
2019-01-18T09:13:00.382Z,1272.00
2019-01-18T09:14:00.362Z,1280.00
2019-01-18T09:15:00.343Z,1296.00
2019-01-18T09:16:00.333Z,1308.00
2019-01-18T09:17:00.311Z,1316.00
2019-01-18T09:18:00.296Z,1324.00
2019-01-18T09:19:00.279Z,1332.00
2019-01-18T09:20:00.261Z,1332.00
2019-01-18T09:21:00.245Z,1332.00
2019-01-18T09:22:00.229Z,1340.00
2019-01-18T09:23:00.212Z,1344.00
2019-01-18T09:24:00.195Z,1352.00
2019-01-18T09:25:00.245Z,1356.00
2019-01-18T09:26:00.162Z,1364.00
2019-01-18T09:27:00.145Z,1368.00
2019-01-18T09:28:00.132Z,1380.00
2019-01-18T09:29:00.114Z,1392.00
2019-01-18T09:30:00.165Z,1400.00
2019-01-18T09:31:00.082Z,1408.00
2019-01-18T09:32:00.066Z,1420.00
2019-01-18T09:33:00.050Z,1420.00
2019-01-18T09:34:00.030Z,1420.00
2019-01-18T09:35:00.015Z,1424.00
2019-01-18T09:35:59.997Z,1432.00
2019-01-18T09:36:59.980Z,1436.00
2019-01-18T09:37:59.964Z,1440.00
2019-01-18T09:38:59.946Z,1444.00
2019-01-18T09:39:59.931Z,1444.00
2019-01-18T09:40:59.915Z,1452.00
2019-01-18T09:41:59.903Z,1472.00
2019-01-18T09:42:59.881Z,1488.00
2019-01-18T09:43:59.868Z,1492.00
2019-01-18T09:44:59.849Z,1496.00
2019-01-18T09:45:59.834Z,1492.00
2019-01-18T09:46:59.818Z,1504.00
2019-01-18T09:47:59.802Z,1500.00
2019-01-18T09:48:59.786Z,1512.00
2019-01-18T09:49:59.768Z,1528.00
2019-01-18T09:50:59.753Z,1540.00
2019-01-18T09:51:59.736Z,1540.00
2019-01-18T09:52:59.720Z,1544.00
2019-01-18T09:53:59.703Z,1544.00
2019-01-18T09:54:59.686Z,1536.00
2019-01-18T09:55:59.671Z,1532.00
2019-01-18T09:56:59.656Z,1536.00
2019-01-18T09:57:59.637Z,1544.00
2019-01-18T09:58:59.624Z,1552.00
2019-01-18T09:59:59.606Z,1556.00
2019-01-18T10:00:59.590Z,1564.00
2019-01-18T10:01:59.573Z,1564.00
2019-01-18T10:02:59.557Z,1576.00
2019-01-18T10:03:59.543Z,1584.00
2019-01-18T10:04:59.527Z,1592.00
2019-01-18T10:05:59.511Z,1592.00
2019-01-18T10:06:59.493Z,1608.00
2019-01-18T10:07:59.479Z,1616.00
2019-01-18T10:08:59.460Z,1616.00
2019-01-18T10:09:59.444Z,1608.00
2019-01-18T10:10:59.429Z,1600.00
2019-01-18T10:11:59.415Z,1604.00
2019-01-18T10:12:59.401Z,1608.00
2019-01-18T10:13:59.383Z,1616.00
2019-01-18T10:14:59.367Z,1632.00
2019-01-18T10:15:59.351Z,1644.00
2019-01-18T10:16:59.334Z,1648.00
2019-01-18T10:18:00.795Z,1648.00
2019-01-18T10:18:59.302Z,1656.00
2019-01-18T10:19:59.287Z,1656.00
2019-01-18T10:20:59.273Z,1676.00
2019-01-18T10:21:59.254Z,1704.00
2019-01-18T10:22:59.243Z,1708.00
2019-01-18T10:23:59.227Z,1716.00
2019-01-18T10:24:59.210Z,1644.00
2019-01-18T10:25:59.193Z,1696.00
2019-01-18T10:26:59.175Z,1652.00
2019-01-18T10:28:00.533Z,1264.00
2019-01-18T10:28:59.146Z,1172.00
2019-01-18T10:29:59.131Z,1172.00
2019-01-18T10:30:59.115Z,1184.00
2019-01-18T10:31:59.100Z,1208.00
2019-01-18T10:32:59.083Z,1292.00
2019-01-18T10:33:59.067Z,1420.00
2019-01-18T10:34:59.052Z,1644.00
2019-01-18T10:35:59.037Z,1468.00
2019-01-18T10:36:59.024Z,1348.00
2019-01-18T10:37:59.007Z,1492.00
2019-01-18T10:38:58.990Z,1552.00
2019-01-18T10:39:58.973Z,1588.00
2019-01-18T10:40:58.962Z,1536.00
2019-01-18T10:41:58.942Z,1748.00
2019-01-18T10:42:58.928Z,1768.00
2019-01-18T10:43:58.911Z,1756.00
2019-01-18T10:44:58.898Z,1720.00
2019-01-18T10:45:58.879Z,1692.00
2019-01-18T10:46:58.866Z,1656.00
2019-01-18T10:48:00.027Z,1628.00
2019-01-18T10:48:58.835Z,1648.00
2019-01-18T10:49:58.817Z,1648.00
2019-01-18T10:50:58.803Z,1688.00
2019-01-18T10:51:58.787Z,1700.00
2019-01-18T10:52:58.773Z,1680.00
2019-01-18T10:53:58.754Z,1660.00
2019-01-18T10:54:58.739Z,1700.00
2019-01-18T10:55:58.725Z,1728.00
2019-01-18T10:56:58.711Z,1792.00
2019-01-18T10:57:58.694Z,1840.00
2019-01-18T10:58:58.678Z,1864.00
2019-01-18T10:59:58.664Z,1848.00
2019-01-18T11:00:58.649Z,1796.00
2019-01-18T11:02:00.803Z,1740.00
2019-01-18T11:02:58.616Z,1556.00
2019-01-18T11:03:58.602Z,1828.00
2019-01-18T11:04:58.586Z,1852.00
2019-01-18T11:05:58.569Z,1812.00
2019-01-18T11:06:58.555Z,1792.00
2019-01-18T11:07:58.541Z,1788.00
2019-01-18T11:08:58.527Z,1852.00
2019-01-18T11:09:58.511Z,1924.00
2019-01-18T11:10:58.494Z,1972.00
2019-01-18T11:11:58.478Z,2004.00
2019-01-18T11:12:58.462Z,2012.00
2019-01-18T11:13:58.448Z,2004.00
2019-01-18T11:14:58.430Z,2000.00
2019-01-18T11:15:58.417Z,1996.00
2019-01-18T11:16:58.404Z,1972.00
2019-01-18T11:17:58.394Z,1916.00
2019-01-18T11:18:58.374Z,1860.00
2019-01-18T11:19:58.389Z,1868.00
2019-01-18T11:20:58.343Z,1880.00
2019-01-18T11:21:58.329Z,1896.00
2019-01-18T11:22:58.313Z,1900.00
2019-01-18T11:23:58.297Z,1940.00
2019-01-18T11:24:58.287Z,1992.00
2019-01-18T11:25:58.267Z,2040.00
2019-01-18T11:26:58.252Z,2088.00
2019-01-18T11:27:58.238Z,2104.00
2019-01-18T11:28:58.225Z,2112.00
2019-01-18T11:29:58.210Z,2120.00
2019-01-18T11:30:58.196Z,2128.00
2019-01-18T11:31:58.178Z,2144.00
2019-01-18T11:32:58.164Z,2164.00
2019-01-18T11:33:58.149Z,2180.00
2019-01-18T11:34:58.136Z,2188.00
2019-01-18T11:35:58.121Z,2208.00
2019-01-18T11:36:58.258Z,2264.00
2019-01-18T11:37:58.090Z,2300.00
2019-01-18T11:38:58.075Z,2332.00
2019-01-18T11:39:58.063Z,2356.00
2019-01-18T11:40:58.048Z,2376.00
2019-01-18T11:41:58.033Z,2392.00
2019-01-18T11:42:58.017Z,2304.00
2019-01-18T11:43:58.002Z,2080.00
2019-01-18T11:44:57.989Z,2400.00
2019-01-18T11:45:57.972Z,2392.00
2019-01-18T11:46:57.960Z,2356.00
2019-01-18T11:47:57.944Z,2332.00
2019-01-18T11:48:57.929Z,2172.00
2019-01-18T11:49:57.914Z,2212.00
2019-01-18T11:50:57.901Z,2008.00
2019-01-18T11:51:57.892Z,1800.00
2019-01-18T11:52:57.873Z,2044.00
2019-01-18T11:53:57.856Z,1748.00
2019-01-18T11:54:57.841Z,1732.00
2019-01-18T11:55:57.827Z,1812.00
2019-01-18T11:56:57.814Z,2152.00
2019-01-18T11:57:57.800Z,2148.00
2019-01-18T11:58:57.782Z,1932.00
2019-01-18T11:59:57.768Z,1612.00
2019-01-18T12:00:57.754Z,1584.00
2019-01-18T12:01:57.739Z,1536.00
2019-01-18T12:02:57.729Z,1492.00
2019-01-18T12:03:57.709Z,1544.00
2019-01-18T12:04:57.695Z,1904.00
2019-01-18T12:05:57.679Z,2100.00
2019-01-18T12:06:57.667Z,2076.00
2019-01-18T12:07:57.655Z,2088.00
2019-01-18T12:08:57.637Z,2032.00
2019-01-18T12:09:57.621Z,1972.00
2019-01-18T12:10:57.610Z,1872.00
2019-01-18T12:11:57.589Z,2036.00
2019-01-18T12:12:57.575Z,2060.00
2019-01-18T12:13:57.563Z,2056.00
2019-01-18T12:14:57.548Z,2000.00
2019-01-18T12:15:57.535Z,1992.00
2019-01-18T12:16:57.518Z,1992.00
2019-01-18T12:17:57.502Z,1988.00
2019-01-18T12:18:57.489Z,2044.00
2019-01-18T12:19:57.473Z,2068.00
2019-01-18T12:20:57.459Z,2092.00
2019-01-18T12:21:57.444Z,2044.00
2019-01-18T12:22:57.431Z,1944.00
2019-01-18T12:23:57.415Z,1956.00
2019-01-18T12:24:57.402Z,1992.00
2019-01-18T12:25:57.385Z,1988.00
2019-01-18T12:26:57.372Z,2028.00
2019-01-18T12:27:57.357Z,2044.00
2019-01-18T12:28:57.342Z,2044.00
2019-01-18T12:29:57.327Z,2048.00
2019-01-18T12:30:57.312Z,2052.00
2019-01-18T12:31:57.300Z,1960.00
2019-01-18T12:32:57.286Z,2040.00
2019-01-18T12:33:57.275Z,2060.00
2019-01-18T12:34:57.254Z,2084.00
2019-01-18T12:35:57.245Z,2048.00
2019-01-18T12:36:58.960Z,2028.00
2019-01-18T12:37:57.212Z,2104.00
2019-01-18T12:38:57.196Z,2144.00
2019-01-18T12:39:57.182Z,2144.00
2019-01-18T12:40:57.167Z,2120.00
2019-01-18T12:41:57.156Z,2104.00
2019-01-18T12:42:57.893Z,1936.00
2019-01-18T12:43:57.125Z,1776.00
2019-01-18T12:44:57.111Z,1864.00
2019-01-18T12:45:57.096Z,1876.00
2019-01-18T12:46:57.084Z,1988.00